Latest Coastal Weather Observations for Portland Harbour

IDV60701

Issued at 10:35 pm EDT Monday 20 October 2014 (issued every 10 minutes, with the page automatically refreshed every 10 minutes)

About coastal observations | Map of coastal stations | Coastal observations for VIC | Marine services | Other Formats
Station Details ID: 090192 Name: PORTLAND NTC AWS Lat: -38.34 Lon: 141.61 Height: 0.0 m
Data from the previous 72 hours. | See also: Recent months for locations in Victoria
Date/Time
EDT
Temp

°C
Wind Pressure Rain
since 9am
mm
Weather Cloud Vis
km
Sea
Height
m
Swell
Dir
 
Speed
knots
Gust
knots
hPa Trend Height
m
Period
s
Dir
20/10:30pm 13.3 ENE 18 22 1027.8 - - - - - - - - -
20/10:00pm 13.9 E 20 24 1027.6 - - - - - - - - -
20/09:30pm 14.2 E 21 26 1027.4 - - - - - - - - -
20/09:00pm 13.9 E 20 26 1027.0 - - - - - - - - -
20/08:30pm 14.0 E 20 27 1026.9 - - - - - - - - -
20/08:00pm 13.7 E 20 26 1026.8 - - - - - - - - -
20/07:30pm 13.8 E 20 28 1026.8 - - - - - - - - -
20/07:00pm 13.9 ESE 17 23 1027.0 - - - - - - - - -
20/06:30pm 13.9 ESE 17 25 1027.3 - - - - - - - - -
20/06:00pm 13.8 ESE 16 24 1027.6 - - - - - - - - -
20/05:30pm 13.5 ESE 20 26 1027.9 - - - - - - - - -
20/05:00pm 13.3 ESE 20 28 1028.1 - - - - - - - - -
20/04:30pm 13.2 ESE 21 27 1028.5 - - - - - - - - -
20/04:00pm 13.4 ESE 19 25 1028.8 - - - - - - - - -
20/03:30pm 13.3 ESE 19 27 1028.9 - - - - - - - - -
20/03:00pm 13.3 ESE 19 25 1029.1 - - - - - - - - -
20/02:30pm 13.1 ESE 18 26 1029.2 - - - - - - - - -
20/02:00pm 13.3 ESE 18 25 1029.4 - - - - - - - - -
20/01:30pm 13.0 ESE 18 24 1029.9 - - - - - - - - -
20/01:00pm 13.1 E 17 22 1030.1 - - - - - - - - -
20/12:30pm 12.7 E 18 24 1030.3 - - - - - - - - -
20/12:00pm 12.9 E 19 28 1030.5 - - - - - - - - -
20/11:30am 12.8 E 19 27 1030.9 - - - - - - - - -
20/11:00am 12.7 E 20 28 1030.7 - - - - - - - - -
20/10:30am 12.9 E 18 25 1030.8 - - - - - - - - -
20/10:00am 13.0 E 19 26 1030.8 - - - - - - - - -
20/09:30am 12.9 E 18 24 1030.8 - - - - - - - - -
20/09:00am 12.5 ESE 19 26 1030.7 - - - - - - - - -
20/08:30am 12.5 ESE 17 24 1030.6 - - - - - - - - -
20/08:00am 12.3 ESE 19 26 1030.3 - - - - - - - - -
20/07:31am 12.2 ESE 18 28 1030.0 - - - - - - - - -
20/07:30am 12.3 ESE 19 28 1030.0 - - - - - - - - -
20/07:00am 12.5 ESE 17 24 1029.2 - - - - - - - - -
20/06:30am 12.4 ESE 17 22 1029.3 - - - - - - - - -
20/06:00am 12.4 ESE 17 23 1029.3 - - - - - - - - -
20/05:30am 12.5 ESE 18 24 1029.0 - - - - - - - - -
20/05:00am 12.4 ESE 18 25 1028.9 - - - - - - - - -
20/04:30am 12.4 ESE 15 22 1028.5 - - - - - - - - -
20/04:00am 12.5 ESE 18 24 1028.7 - - - - - - - - -
20/03:30am 12.4 ESE 17 23 1028.7 - - - - - - - - -
20/03:00am 12.6 ESE 18 23 1028.6 - - - - - - - - -
20/02:30am 12.7 SE 18 24 1029.0 - - - - - - - - -
20/02:00am 12.8 SE 18 24 1028.8 - - - - - - - - -
20/01:30am 12.9 ESE 17 22 1029.2 - - - - - - - - -
20/01:00am 12.8 SE 18 24 1029.3 - - - - - - - - -
20/12:30am 12.9 SE 17 21 1029.3 - - - - - - - - -
20/12:00am 13.0 SE 16 21 1029.4 - - - - - - - - -
 
Date/Time
EDT
Temp

°C
Wind Pressure Rain
since 9am
mm
Weather Cloud Vis
km
Sea
Height
m
Swell
Dir
 
Speed
knots
Gust
knots
hPa Trend Height
m
Period
s
Dir
19/11:30pm 13.0 SE 16 21 1029.3 - - - - - - - - -
19/11:00pm 13.1 SE 16 22 1029.2 - - - - - - - - -
19/10:30pm 12.9 SE 16 20 1029.0 - - - - - - - - -
19/10:00pm 12.8 SE 17 22 1028.8 - - - - - - - - -
19/09:30pm 12.1 SSE 16 21 1028.9 - - - - - - - - -
19/09:00pm 13.1 SSE 13 18 1028.1 - - - - - - - - -
19/08:30pm 13.1 SSE 12 17 1027.6 - - - - - - - - -
19/08:00pm 12.9 SSE 12 19 1027.5 - - - - - - - - -
19/07:30pm 12.8 SSE 15 21 1026.8 - - - - - - - - -
19/07:00pm 13.3 S 16 22 1026.3 - - - - - - - - -
19/06:30pm 13.7 S 12 17 1025.8 - - - - - - - - -
19/06:00pm 13.9 S 18 23 1024.4 - - - - - - - - -
19/05:30pm 14.4 S 13 18 1024.1 - - - - - - - - -
19/05:00pm 14.7 S 9 13 1024.3 - - - - - - - - -
19/04:30pm 14.7 S 11 15 1024.1 - - - - - - - - -
19/04:00pm 14.8 S 13 17 1023.7 - - - - - - - - -
19/03:30pm 14.6 S 14 18 1023.8 - - - - - - - - -
19/03:00pm 14.7 S 12 16 1023.2 - - - - - - - - -
19/02:30pm 14.6 S 12 16 1022.3 - - - - - - - - -
19/02:00pm 14.8 S 11 14 1022.5 - - - - - - - - -
19/01:30pm 14.8 S 7 10 1021.7 - - - - - - - - -
19/01:00pm 14.5 S 11 15 1022.1 - - - - - - - - -
19/12:30pm 14.9 S 12 15 1021.6 - - - - - - - - -
19/12:00pm 14.8 S 13 17 1021.7 - - - - - - - - -
19/11:30am 14.7 S 10 14 1021.2 - - - - - - - - -
19/11:00am 14.7 SSW 10 14 1021.2 - - - - - - - - -
19/10:30am 14.5 S 6 8 1020.4 - - - - - - - - -
19/10:00am 14.7 SSE 5 9 1020.4 - - - - - - - - -
19/09:30am 14.4 SE 3 5 1019.9 - - - - - - - - -
19/09:00am 14.2 ENE 3 4 1019.6 - - - - - - - - -
19/08:30am 14.2 SE 2 3 1019.7 - - - - - - - - -
19/08:00am 13.9 ENE 5 7 1019.4 - - - - - - - - -
19/07:30am 14.0 NE 4 7 1019.0 - - - - - - - - -
19/07:00am 13.8 ENE 1 3 1019.1 - - - - - - - - -
19/06:30am 13.7 S 1 1 1019.0 - - - - - - - - -
19/06:00am 13.5 SSW 1 2 1018.8 - - - - - - - - -
19/05:30am 13.3 SW 5 7 1019.1 - - - - - - - - -
19/05:00am 13.6 WSW 3 4 1018.8 - - - - - - - - -
19/04:30am 13.7 N 1 2 1018.3 - - - - - - - - -
19/04:00am 13.7 W 2 5 1018.5 - - - - - - - - -
19/03:30am 14.0 W 3 5 1018.8 - - - - - - - - -
19/03:00am 14.2 WSW 3 5 1019.3 - - - - - - - - -
19/02:30am 14.5 W 3 5 1019.4 - - - - - - - - -
19/02:00am 14.6 W 1 2 1019.8 - - - - - - - - -
19/01:30am 14.9 WSW 5 7 1019.6 - - - - - - - - -
19/01:00am 15.2 WSW 6 8 1019.3 - - - - - - - - -
19/12:30am 15.6 W 6 9 1019.4 - - - - - - - - -
19/12:00am 15.6 W 7 10 1019.3 - - - - - - - - -
 
Date/Time
EDT
Temp

°C
Wind Pressure Rain
since 9am
mm
Weather Cloud Vis
km
Sea
Height
m
Swell
Dir
 
Speed
knots
Gust
knots
hPa Trend Height
m
Period
s
Dir
18/11:30pm 16.0 W 5 8 1019.0 - - - - - - - - -
18/11:00pm 16.6 W 8 12 1019.1 - - - - - - - - -
18/10:30pm 17.5 W 8 14 1019.2 - - - - - - - - -
18/10:00pm 18.6 W 11 19 1019.1 - - - - - - - - -
18/09:30pm 19.6 W 12 20 1019.0 - - - - - - - - -
18/09:00pm 20.8 W 10 14 1018.4 - - - - - - - - -
18/08:30pm 22.6 W 10 17 1018.0 - - - - - - - - -
18/08:00pm 23.2 WNW 8 12 1017.5 - - - - - - - - -
18/07:30pm 24.1 WNW 6 9 1017.4 - - - - - - - - -
18/07:00pm 24.2 W 7 10 1017.4 - - - - - - - - -
18/06:30pm 24.9 W 10 18 1017.3 - - - - - - - - -
18/06:00pm 26.5 WSW 13 24 1017.4 - - - - - - - - -
18/05:30pm 26.1 NNW 8 12 1017.2 - - - - - - - - -
18/05:00pm 22.6 N 12 15 1017.2 - - - - - - - - -
18/04:30pm 23.9 N 14 18 1017.5 - - - - - - - - -
18/04:00pm 23.7 N 15 20 1017.9 - - - - - - - - -
18/03:30pm 24.2 N 19 26 1017.9 - - - - - - - - -
18/03:00pm 23.6 N 20 23 1018.4 - - - - - - - - -
18/02:30pm 21.7 N 18 24 1018.8 - - - - - - - - -
18/02:00pm 22.0 N 21 26 1019.0 - - - - - - - - -
18/01:30pm 20.4 N 20 28 1019.4 - - - - - - - - -
18/01:00pm 21.2 N 22 30 1020.0 - - - - - - - - -
18/12:58pm 21.4 N 20 30 1020.1 - - - - - - - - -
18/12:30pm 20.1 N 16 21 1020.7 - - - - - - - - -
18/12:00pm 18.8 N 17 20 1021.2 - - - - - - - - -
18/11:30am 18.2 N 16 20 1021.5 - - - - - - - - -
18/11:00am 17.5 N 14 17 1021.9 - - - - - - - - -
18/10:30am 16.9 N 13 17 1022.1 - - - - - - - - -
18/10:00am 16.3 N 5 8 1022.6 - - - - - - - - -
18/09:30am 15.8 NNE 6 8 1022.8 - - - - - - - - -
18/09:00am 15.5 N 6 8 1023.0 - - - - - - - - -
18/08:30am 14.6 N 3 7 1023.0 - - - - - - - - -
18/08:00am 14.1 N 2 4 1022.7 - - - - - - - - -
18/07:30am 14.2 NNE 3 5 1022.6 - - - - - - - - -
18/07:00am 13.5 NNE 2 4 1022.7 - - - - - - - - -
18/06:30am 13.1 N 4 6 1021.8 - - - - - - - - -
18/06:00am 12.6 NNE 4 6 1021.7 - - - - - - - - -
18/05:30am 12.6 NNE 7 9 1021.7 - - - - - - - - -
18/05:00am 12.9 NE 7 9 1021.9 - - - - - - - - -
18/04:30am 13.1 NE 8 9 1021.8 - - - - - - - - -
18/04:00am 13.1 NE 8 9 1022.0 - - - - - - - - -
18/03:30am 13.3 NE 7 9 1022.2 - - - - - - - - -
18/03:00am 13.4 NE 5 6 1022.7 - - - - - - - - -
18/02:30am 12.8 NE 7 8 1022.2 - - - - - - - - -
18/02:00am 12.7 NE 10 12 1022.2 - - - - - - - - -
18/01:30am 12.4 ENE 8 11 1022.8 - - - - - - - - -
18/01:00am 12.7 NE 9 13 1022.4 - - - - - - - - -
18/12:30am 12.2 NNE 15 18 1022.3 - - - - - - - - -
18/12:00am 12.0 NE 8 11 1023.3 - - - - - - - - -
 
Date/Time
EDT
Temp

°C
Wind Pressure Rain
since 9am
mm
Weather Cloud Vis
km
Sea
Height
m
Swell
Dir
 
Speed
knots
Gust
knots
hPa Trend Height
m
Period
s
Dir
17/11:30pm 12.2 NE 14 19 1023.8 - - - - - - - - -
17/11:00pm 12.2 NE 12 15 1024.1 - - - - - - - - -

Other Formats:

Comma delimited format used in spreadsheet applications
http://www.bom.gov.au/fwo/IDV60701/IDV60701.95826.axf

JavaScript Object Notation format (JSON) in row-major order
http://www.bom.gov.au/fwo/IDV60701/IDV60701.95826.json